Austwell, Texas
Current Conditions -  °F | °C
As of 7:15 AM on Friday 24 Oct 2014 (Local Time) from KPKV Reporting Station
Clear Clear  
Wind Chill: 15°   Ceiling: Unl
Heat Index: 15°   Visibility: 10mi
Dew Point: 14°   Wind: 7mph
Humidity: 91%   Direction: 40°NE
Pressure: 30.12"   Gusts: NA
Location:  28.39°N, 96.84°W
Report Text: KPKV 241215Z AUTO 04006KT 10SM CLR 15/14 A3012 RMK AO2 T01510137
Loading
Personal Weather Stations






























Interactive Weather Map New forecast layout! Learn more

10-Day Weather Forecast

Advertisements
Track Severe Weather on mobile